• Join FlightAware (Why Join?)
  • Login
  • US Flag 
05:55AM EDT


 

Airport Tracker/Info


-or-


 

Live Flight TrackerFlight Track Log ✈ N16112 ✈ 17-Apr-2013 ✈ KMCI - KEWR

Flight Track Log - Related Links

Times and Time Zones

All times are in EDT time to prevent confusion due to time zone crossing. See the N16112 flight status page for this flight to view local times or setup timezone preferences in your user account.

Time Position Orientation Groundspeed Altitude Reporting Facility
EDT Latitude Longitude Course Direction KTS MPH feet Rate Location/Type
06:56PM 39.3833 -94.6667 30° Northeast 227 261 3,200  Level Kansas City TRACON
06:57PM 39.3944 -94.5769 81° East 259 298 4,900 1,680 Climbing Kansas City Center
06:58PM 38.9795 -94.6490 169° South  Level FlightAware Approximate
06:58PM 39.3886 -94.4828 95° East 278 320 6,800  Level Kansas City Center
06:59PM 38.8689 -94.6238 171° South  Level FlightAware Approximate
07:00PM 38.7579 -94.6016 171° South  Level FlightAware Approximate
07:00PM 39.3147 -94.4683 171° South 246 283 9,400  Level Kansas City Center
07:01PM 39.2450 -94.4706 181° South 260 299 10,500 1,200 Climbing Kansas City Center
07:02PM 39.1611 -94.4714 180° South 311 358 11,900 1,680 Climbing Kansas City Center
07:03PM 39.0661 -94.4736 181° South 305 351 14,000 1,620 Climbing Kansas City Center
07:04PM 38.9822 -94.4750 181° South 312 359 15,300 1,260 Climbing Kansas City Center
07:05PM 38.8803 -94.4769 181° South 327 376 16,600 1,140 Climbing Kansas City Center
07:06PM 38.7925 -94.4778 180° South 329 379 17,700 1,260 Climbing Kansas City Center
07:07PM 38.7014 -94.4811 182° South 338 389 19,300 1,620 Climbing Kansas City Center
07:08PM 38.5978 -94.4842 181° South 333 383 21,000 1,620 Climbing Kansas City Center
07:09PM 38.5097 -94.4844 180° South 330 380 22,600 1,500 Climbing Kansas City Center
07:10PM 38.4064 -94.4881 182° South 331 381 24,200 1,440 Climbing Kansas City Center
07:11PM 38.3186 -94.4800 176° South 331 381 25,600 1,320 Climbing Kansas City Center
07:12PM 38.2572 -94.3686 125° Southeast 357 411 26,900 1,200 Climbing Kansas City Center
07:13PM 38.2425 -94.2397 98° East 374 430 28,100 1,080 Climbing Kansas City Center
07:14PM 38.2275 -94.1131 99° East 379 436 29,200 1,020 Climbing Kansas City Center
07:15PM 38.2214 -93.9675 93° East 380 437 30,300 960 Climbing Kansas City Center
07:16PM 38.2181 -93.8292 92° East 391 450 31,300 1,020 Climbing Kansas City Center
07:17PM 38.2147 -93.6906 92° East 392 451 32,400 1,140 Climbing Kansas City Center
07:18PM 38.2114 -93.5542 92° East 388 447 33,700 1,200 Climbing Kansas City Center
07:19PM 38.2081 -93.4236 92° East 376 433 34,900 600 Climbing Kansas City Center
07:20PM 38.2053 -93.2928 92° East 370 426 35,000  Climbing Kansas City Center
07:21PM 38.2006 -93.1261 92° East 387 445 35,000  Level Kansas City Center
07:22PM 38.1986 -92.9778 91° East 413 475 35,000 600 Level Kansas City Center
07:23PM 38.1933 -92.8317 93° East 413 475 36,300 960 Climbing Kansas City Center
07:24PM 38.1892 -92.7061 92° East 398 458 37,000 300 Climbing Kansas City Center
07:25PM 38.1856 -92.5681 92° East 392 451 37,000  Level Kansas City Center
07:26PM 38.1806 -92.4239 92° East 405 466 37,000  Level Kansas City Center
07:27PM 38.1747 -92.2456 92° East 420 483 37,000  Level Kansas City Center
07:28PM 38.1683 -92.0936 93° East 429 494 37,000  Level Kansas City Center
07:29PM 38.1622 -91.9447 93° East 434 499 37,000  Level Kansas City Center
07:30PM 38.1558 -91.7872 93° East 440 506 37,000  Level Kansas City Center
07:31PM 38.1489 -91.6294 93° East 444 511 37,000  Level Kansas City Center
07:32PM 38.1425 -91.4744 93° East 443 510 37,000  Level Kansas City Center
07:33PM 38.1372 -91.3161 92° East 444 511 37,000  Level Kansas City Center
07:34PM 38.1278 -91.1247 94° East 448 516 37,000  Level Kansas City Center
07:35PM 38.1194 -90.9656 94° East 456 525 37,000  Level Kansas City Center
07:36PM 38.1114 -90.8047 94° East 460 529 37,000  Level Kansas City Center
07:37PM 38.1042 -90.6456 93° East 456 525 37,000  Level Kansas City Center
07:38PM 38.0967 -90.4842 93° East 461 531 37,000  Level Kansas City Center
07:40PM 38.0872 -90.2978 94° East 465 535 37,000  Level Kansas City Center
07:41PM 38.0783 -90.1200 94° East 469 540 37,000  Level Kansas City Center
07:42PM 38.0681 -89.9542 94° East 472 543 37,000  Level Kansas City Center
07:43PM 38.0594 -89.7894 94° East 472 543 37,000  Level Kansas City Center
07:44PM 38.0500 -89.6139 94° East 467 537 37,000  Level Kansas City Center
07:45PM 38.0436 -89.4508 93° East 465 535 37,000  Level Kansas City Center
07:46PM 38.0653 -89.2872 80° East 469 540 37,000  Level Kansas City Center
07:47PM 38.0881 -89.1133 80° East 468 539 37,000  Level Kansas City Center
07:48PM 38.1100 -88.9489 80° East 472 543 37,000  Level Kansas City Center
07:49PM 38.1331 -88.7844 80° East 474 545 37,000  Level Kansas City Center
07:50PM 38.1556 -88.6247 80° East 473 544 37,000  Level Kansas City Center
07:51PM 38.1783 -88.4614 80° East 470 541 37,000  Level Kansas City Center
07:52PM 38.2000 -88.2964 80° East 471 542 37,000  Level Kansas City Center
07:53PM 38.2231 -88.1325 80° East 468 539 37,000  Level Kansas City Center
07:54PM 38.2411 -88.0047 80° East 464 534 37,000  Level Indianapolis Center
07:55PM 38.2606 -87.8572 80° East 432 497 37,000  Level Indianapolis Center
07:56PM 38.2811 -87.7069 80° East 428 493 37,000  Level Indianapolis Center
07:57PM 38.3006 -87.5533 81° East 437 503 37,000  Level Indianapolis Center
07:58PM 38.3197 -87.4019 81° East 433 498 37,000  Level Indianapolis Center
07:59PM 38.3378 -87.2589 81° East 413 475 37,000  Level Indianapolis Center
08:00PM 38.3583 -87.1022 80° East 408 470 37,000  Level Indianapolis Center
08:01PM 38.4294 -86.9736 55° Northeast 431 496 37,000  Level Indianapolis Center
08:02PM 38.5028 -86.8539 52° Northeast 435 501 37,000  Level Indianapolis Center
08:03PM 38.5789 -86.7308 52° Northeast 439 505 37,000  Level Indianapolis Center
08:04PM 38.6539 -86.6103 51° Northeast 434 499 37,000  Level Indianapolis Center
08:05PM 38.7278 -86.4922 51° Northeast 427 491 37,000  Level Indianapolis Center
08:06PM 38.8008 -86.3733 52° Northeast 424 488 37,000  Level Indianapolis Center
08:07PM 38.8756 -86.2503 52° Northeast 433 498 37,000  Level Indianapolis Center
08:08PM 38.9672 -86.1017 52° Northeast 439 505 37,000  Level Indianapolis Center
08:09PM 39.0411 -85.9794 52° Northeast 434 499 37,000  Level Indianapolis Center
08:10PM 39.1125 -85.8600 52° Northeast 423 487 37,000  Level Indianapolis Center
08:11PM 39.1864 -85.7389 52° Northeast 428 493 37,000  Level Indianapolis Center
08:12PM 39.2611 -85.6150 52° Northeast 434 499 37,000  Level Indianapolis Center
08:13PM 39.3436 -85.4808 51° Northeast 444 511 37,000  Level Indianapolis Center
08:14PM 39.4250 -85.3567 50° Northeast 449 517 37,000  Level Indianapolis Center
08:15PM 39.5078 -85.2342 49° Northeast 447 514 37,000  Level Indianapolis Center
08:16PM 39.5861 -85.1169 49° Northeast 432 497 37,000  Level Indianapolis Center
08:17PM 39.6644 -84.9969 50° Northeast 429 494 37,000  Level Indianapolis Center
08:18PM 39.7464 -84.8761 49° Northeast 439 505 37,000  Level Indianapolis Center
08:19PM 39.8261 -84.7528 50° Northeast 441 507 37,000  Level Indianapolis Center
08:20PM 39.9094 -84.6267 49° Northeast 452 520 37,000  Level Indianapolis Center
08:21PM 39.9925 -84.4994 50° Northeast 455 524 37,000  Level Indianapolis Center
08:22PM 40.0761 -84.3708 50° Northeast 459 528 37,000  Level Indianapolis Center
08:23PM 40.1600 -84.2411 50° Northeast 459 528 37,000  Level Indianapolis Center
08:24PM 40.2442 -84.1111 50° Northeast 461 531 37,000  Level Indianapolis Center
08:25PM 40.3250 -83.9792 51° Northeast 460 529 37,000  Level Indianapolis Center
08:26PM 40.4153 -83.8242 53° Northeast 454 522 37,000  Level Indianapolis Center
08:27PM 40.4931 -83.6911 52° Northeast 453 521 37,000  Level Indianapolis Center
08:28PM 40.5706 -83.5567 53° Northeast 455 524 37,000  Level Indianapolis Center
08:29PM 40.6336 -83.4450 53° Northeast 449 517 37,000  Level Cleveland Center
08:30PM 40.6931 -83.3161 59° Northeast 449 517 37,000  Level Cleveland Center
08:31PM 40.7569 -83.1653 61° Northeast 455 524 37,000  Level Cleveland Center
08:32PM 40.8189 -83.0142 62° Northeast 460 529 37,000  Level Cleveland Center
08:33PM 40.8803 -82.8681 61° Northeast 460 529 37,000  Level Cleveland Center
08:34PM 40.9436 -82.7164 61° Northeast 466 536 37,000  Level Cleveland Center
08:35PM 41.0069 -82.5614 62° Northeast 466 536 37,000  Level Cleveland Center
08:36PM 41.0719 -82.4064 61° Northeast 471 542 37,000  Level Cleveland Center
08:37PM 41.1347 -82.2539 61° Northeast 471 542 37,000  Level Cleveland Center
08:38PM 41.1972 -82.1008 61° Northeast 466 536 37,000  Level Cleveland Center
08:39PM 41.2619 -81.9450 61° Northeast 471 542 37,000  Level Cleveland Center
08:40PM 41.3261 -81.7886 61° Northeast 471 542 37,000  Level Cleveland Center
08:41PM 41.3881 -81.6319 62° Northeast 471 542 37,000  Level Cleveland Center
08:42PM 41.4500 -81.4808 61° Northeast 463 533 37,000  Level Cleveland Center
08:43PM 41.5114 -81.3236 62° Northeast 468 539 37,000  Level Cleveland Center
08:44PM 41.5750 -81.1661 62° Northeast 474 545 37,000  Level Cleveland Center
08:45PM 41.6339 -81.0139 63° Northeast 466 536 37,000  Level Cleveland Center
08:46PM 41.6969 -80.8528 62° Northeast 472 543 37,000  Level Cleveland Center
08:47PM 41.7639 -80.6806 62° Northeast 467 537 37,000  Level Cleveland Center
08:48PM 41.7953 -80.5081 76° East 467 537 37,000  Level Cleveland Center
08:49PM 41.7761 -80.3214 98° East 473 544 37,000  Level Cleveland Center
08:50PM 41.7569 -80.1433 98° East 482 555 37,000  Level Cleveland Center
08:51PM 41.7372 -79.9597 98° East 487 560 37,000  Level Cleveland Center
08:52PM 41.7194 -79.7792 97° East 492 566 37,000  Level Cleveland Center
08:53PM 41.7017 -79.6181 98° East 492 566 37,000  Level Cleveland Center
08:54PM 41.6833 -79.4322 97° East 492 566 37,000  Level Cleveland Center
08:55PM 41.6625 -79.2544 99° East 497 572 37,000  Level Cleveland Center
08:56PM 41.6436 -79.0689 98° East 497 572 37,000 -360 Level Cleveland Center
08:57PM 41.6222 -78.8833 99° East 502 578 36,300 -1,440 Descending Cleveland Center
08:59PM 41.5858 -78.5761 99° East 466 536 33,200 -1,740 Descending New York Center
09:00PM 41.5636 -78.4014 100° East 472 543 31,700 -1,140 Descending New York Center
09:01PM 41.5439 -78.2217 98° East 472 543 31,000 -360 Descending New York Center
09:02PM 41.5217 -78.0419 99° East 484 557 31,000 -540 Level New York Center
09:03PM 41.4975 -77.8536 100° East 499 574 30,000 -1,020 Descending New York Center
09:04PM 41.4711 -77.6681 101° East 512 589 29,000 -540 Descending New York Center
09:05PM 41.4408 -77.4683 101° East 517 595 29,000  Level New York Center
09:06PM 41.4136 -77.2858 101° East 517 595 29,000  Level New York Center
09:07PM 41.3858 -77.1061 102° East 517 595 29,000  Level New York Center
09:08PM 41.3597 -76.9267 101° East 517 595 29,000 -840 Level New York Center
09:09PM 41.3275 -76.7442 103° East 517 595 27,400 -1,920 Descending New York Center
09:10PM 41.2819 -76.5689 109° East 501 577 25,300 -2,400 Descending New York Center
09:11PM 41.2394 -76.4133 110° East 501 577 22,600 -2,880 Descending New York Center
09:12PM 41.1950 -76.2525 110° East 483 556 19,600 -2,700 Descending New York Center
09:13PM 41.1506 -76.0836 109° East 449 517 17,300 -2,100 Descending New York Center
09:14PM 41.1133 -75.9347 108° East 438 504 15,500 -1,740 Descending New York Center
09:15PM 41.0769 -75.8108 111° Southeast 415 478 13,900 -1,260 Descending New York Center
09:16PM 41.0392 -75.6706 110° East 405 466 13,000 -480 Descending New York Center
09:17PM 40.9953 -75.5189 111° Southeast 396 456 13,000 -300 Level New York Center
09:18PM 40.9572 -75.3789 110° East 396 456 12,400 -1,260 Descending New York Center
09:19PM 40.9203 -75.2528 111° Southeast 390 449 10,500 -1,560 Descending New York Center
09:20PM 40.8892 -75.1408 110° East 347 399 9,400 -1,440 Descending New York Center
09:21PM 40.8633 -75.0486 110° East 307 353 7,700 -1,200 Descending New York Center
09:22PM 40.8269 -74.9558 117° Southeast 288 331 7,000 -480 Descending New York Center
09:23PM 40.7844 -74.8628 121° Southeast 290 334 6,800 -540 Descending New York Center
09:24PM 40.7589 -74.7544 107° East 284 327 6,000 -420 Descending New York Center
09:25PM 40.7389 -74.6683 107° East 272 313 6,000  Level New York Center
09:26PM 40.7025 -74.5733 117° Southeast 272 313 6,000 -360 Level New York Center
09:27PM 40.6414 -74.5314 152° Southeast 259 298 5,400 -840 Descending New York Center
09:27PM 40.6000 -74.4833 139° Southeast 270 311 4,800 -900 Descending New York TRACON
09:29PM 40.5500 -74.3167 111° Southeast 213 245 3,200 -900 Descending New York TRACON
09:30PM 40.5667 -74.2500 72° East 180 207 2,200 -1,020 Descending New York TRACON